Moose Creek, Minnesota
Current Conditions -  °F | °C
As of 11:33 AM on Saturday 25 Oct 2014 (Local Time) from KBJI Reporting Station
Clear Clear  
Wind Chill: 50°   Ceiling: Unl
Heat Index: 50°   Visibility: 10mi
Dew Point: 30°   Wind: 21mph
Humidity: 46%   Direction: 300°WNW
Pressure: 30.02"   Gusts: 28mph
Location:  47.4609°N, 95.2384°W
Report Text: KBJI 251633Z AUTO 30018G24KT 10SM CLR 10/M01 A3002 RMK AO2 T01011011
Loading
Personal Weather Stations






























Interactive Weather Map
Tropical Storm Tracking
New forecast layout! Learn more

10-Day Weather Forecast

Advertisements
Track Severe Weather on mobile